Napili-Honokowai, HI

4:55 PM HST on December 05, 2016 (GMT -1000)
| | Change Station

Elev -9999 ft 0.00 °N, 0.00 °E | Updated

Scattered Clouds
Scattered Clouds
°F
Feels Like °F
N
Wind Variable Wind from North
Gusts mph

Today
High -- | Low -- °F
--% Chance of Precip.
Yesterday
High -- | Low -- °F
Precip. -- in
Pressure 29.89 in
Visibility 15.0 miles
Clouds Scattered Clouds 4500 ft
Scattered Clouds 7000 ft
Dew Point Not available.
Humidity Not available.
Rainfall --
Snow Depth Not available.
6:50 AM 5:45 PM
Waxing Crescent, 37% visible
METAR PHJH 060145Z 01008KT 15SM SCT045 SCT070 26/18 A2989
Pressure 29.89 in
Visibility 15.0 miles
Clouds Scattered Clouds 4500 ft
Scattered Clouds 7000 ft
Dew Point Not available.
Humidity Not available.
Rainfall --
Snow Depth Not available.
6:50 AM 5:45 PM
Waxing Crescent, 37% visible
METAR PHJH 060145Z 01008KT 15SM SCT045 SCT070 26/18 A2989

10-Day Weather Forecast

Almanac

Astronomy

Dec. 05, 2016 Rise Set
Actual Time
Civil Twilight
Nautical Twilight
Astronomical Twilight
Moon
Length of Visible Light
Length of Day
Tomorrow will be .
, % of the Moon is Illuminated

Today's Extremes

State Highs State Lows

Community

WunderPhotos

Upload Photos

1,955,908 photos uploaded!

WunderBlog® & News

Nearby

Air Quality

  Air Quality AQ Index Pollutant
Not available.

Snow Depth

Station Depth Elevation

Earthquake Activity

City Distance Mag. Time & Date
Minimum magnitude displayed is 2.5.

Coastal Water Temperatures

Place Temperature

Stations

Nearby Weather Stations

Station Location Temp. Windchill Dew Point Humidity Wind Precip. Elev Updated Type
                   

Watches & Warnings

There are currently no watches in effect.